Time;durP1;ratioP1;P1;durP2;ratioP2;P2;SDS_P1;SDS_P2;PMS_P1;PMS_P2;Temp;Humidity;BMP_temperature;BMP_pressure;BME280_temperature;BME280_humidity;BME280_pressure;Samples;Min_cycle;Max_cycle;Signal;HPM_P1;HPM_P2
2021/06/30 00:02:07;;;;;;;4.57;1.60;;;;;;;25.77;40.24;100550.72;5034179;28;20045;-63
2021/06/30 00:04:38;;;;;;;3.60;1.30;;;;;;;25.78;40.00;100544.31;5034025;28;20049;-64
2021/06/30 00:07:11;;;;;;;3.38;1.30;;;;;;;25.76;39.97;100541.81;5034011;28;20498;-64
2021/06/30 00:09:42;;;;;;;3.15;1.60;;;;;;;25.78;40.21;100541.63;5033946;28;20057;-64
2021/06/30 00:12:14;;;;;;;4.43;1.52;;;;;;;25.79;40.23;100544.13;5033966;28;20060;-63
2021/06/30 00:14:46;;;;;;;2.58;1.40;;;;;;;25.80;40.17;100545.78;5033803;28;20046;-65
2021/06/30 00:17:18;;;;;;;3.17;1.80;;;;;;;25.80;40.12;100542.25;5033540;28;20131;-65
2021/06/30 00:19:50;;;;;;;3.25;1.42;;;;;;;25.77;40.28;100546.16;5033960;28;20053;-64
2021/06/30 00:22:22;;;;;;;4.20;1.83;;;;;;;25.75;40.25;100538.31;5033410;28;20420;-63
2021/06/30 00:24:54;;;;;;;2.83;1.55;;;;;;;25.79;40.28;100535.22;5033836;28;20067;-63
2021/06/30 00:27:25;;;;;;;3.55;1.55;;;;;;;25.72;40.31;100533.28;5033769;28;20061;-63
2021/06/30 00:29:57;;;;;;;2.25;1.80;;;;;;;25.64;40.77;100532.63;5033755;28;20045;-63
2021/06/30 00:32:28;;;;;;;3.25;1.55;;;;;;;25.56;40.92;100538.91;5032859;28;20049;-63
2021/06/30 00:35:00;;;;;;;2.22;1.80;;;;;;;25.58;40.98;100537.72;5033694;28;20084;-63
2021/06/30 00:37:32;;;;;;;3.90;1.65;;;;;;;25.54;40.85;100541.78;5036150;28;20049;-64
2021/06/30 00:40:04;;;;;;;2.95;1.77;;;;;;;25.53;40.89;100545.50;5034963;28;20045;-63
2021/06/30 00:42:37;;;;;;;3.65;1.50;;;;;;;25.49;41.07;100543.41;5036936;28;20053;-64
2021/06/30 00:45:06;;;;;;;1.77;1.60;;;;;;;25.47;40.97;100540.06;5053326;28;20041;-63
2021/06/30 00:47:38;;;;;;;2.92;1.50;;;;;;;25.47;41.25;100546.28;5053114;28;20056;-63
2021/06/30 00:50:12;;;;;;;3.83;1.70;;;;;;;25.45;41.28;100544.81;5034004;28;20129;-63
2021/06/30 00:52:44;;;;;;;3.72;1.90;;;;;;;25.48;41.38;100549.78;5032875;28;20437;-64
2021/06/30 00:55:16;;;;;;;3.30;1.70;;;;;;;25.48;41.41;100547.94;5033171;28;20060;-63
2021/06/30 00:57:47;;;;;;;4.47;1.52;;;;;;;25.49;41.67;100543.41;5033267;28;20048;-63
2021/06/30 01:00:19;;;;;;;2.75;1.98;;;;;;;25.48;41.53;100547.94;5033847;28;20049;-63
2021/06/30 01:02:51;;;;;;;3.60;1.67;;;;;;;25.46;41.85;100544.63;5052932;28;20041;-63
2021/06/30 01:05:23;;;;;;;7.72;1.67;;;;;;;25.45;42.00;100537.56;5052846;28;20056;-63
2021/06/30 01:07:54;;;;;;;5.03;1.90;;;;;;;25.45;42.00;100548.31;5051950;28;20517;-63
2021/06/30 01:10:26;;;;;;;6.50;2.10;;;;;;;25.45;42.03;100545.63;5032773;28;20545;-63
2021/06/30 01:12:57;;;;;;;3.92;1.88;;;;;;;25.40;42.70;100543.50;5032906;28;20049;-63
2021/06/30 01:15:29;;;;;;;6.20;2.65;;;;;;;25.36;42.74;100549.47;5032655;28;20508;-63
2021/06/30 01:18:00;;;;;;;3.53;1.80;;;;;;;25.37;43.00;100551.13;5032555;28;20059;-63
2021/06/30 01:20:32;;;;;;;6.72;1.80;;;;;;;25.36;42.98;100557.53;5032588;28;20049;-62
2021/06/30 01:23:08;;;;;;;4.68;1.63;;;;;;;25.33;43.13;100550.66;5032725;28;20053;-63
2021/06/30 01:25:40;;;;;;;5.65;1.77;;;;;;;25.31;43.31;100547.31;5032495;28;20045;-63
2021/06/30 01:28:11;;;;;;;4.60;2.10;;;;;;;25.27;43.51;100554.09;5032708;28;20045;-63
2021/06/30 01:30:47;;;;;;;4.93;2.28;;;;;;;25.26;43.63;100553.22;5049713;28;20049;-63
2021/06/30 01:33:19;;;;;;;4.85;2.20;;;;;;;25.18;43.80;100550.69;5051109;28;20055;-63
2021/06/30 01:35:51;;;;;;;4.40;1.73;;;;;;;25.13;44.18;100557.63;5051945;28;20056;-63
2021/06/30 01:38:27;;;;;;;4.60;2.22;;;;;;;25.10;44.42;100558.81;5052410;28;20041;-65
2021/06/30 01:40:58;;;;;;;;;;;;;;;24.97;44.59;100555.97;5052952;28;20048;-63
2021/06/30 01:43:30;;;;;;;3.90;1.50;;;;;;;25.03;44.59;100557.94;5046031;28;20379;-63
2021/06/30 01:46:01;;;;;;;5.07;1.90;;;;;;;25.04;44.60;100547.00;5032438;28;20486;-63
2021/06/30 01:48:33;;;;;;;5.63;2.28;;;;;;;25.02;44.33;100548.19;5032515;28;20042;-65
2021/06/30 01:51:05;;;;;;;5.50;1.70;;;;;;;24.89;45.02;100549.69;5032305;28;20052;-63
2021/06/30 01:53:36;;;;;;;4.90;1.85;;;;;;;24.93;44.79;100558.19;5032172;28;20060;-63
2021/06/30 01:56:08;;;;;;;7.25;2.08;;;;;;;24.94;44.59;100552.66;5032365;28;20053;-63
2021/06/30 01:58:39;;;;;;;5.10;2.05;;;;;;;24.88;44.85;100561.44;5032200;28;20051;-63
2021/06/30 02:01:13;;;;;;;6.82;2.10;;;;;;;24.88;45.10;100566.81;5032146;28;20060;-63
2021/06/30 02:03:44;;;;;;;7.85;1.83;;;;;;;24.85;45.12;100561.81;5032062;28;20469;-63
2021/06/30 02:06:16;;;;;;;5.35;1.67;;;;;;;24.87;45.21;100567.00;5032198;28;20041;-63
2021/06/30 02:08:47;;;;;;;5.82;1.90;;;;;;;24.87;45.15;100570.50;5032013;28;20041;-63
2021/06/30 02:11:19;;;;;;;4.97;1.83;;;;;;;24.83;45.50;100576.44;5032186;28;20052;-63
2021/06/30 02:13:51;;;;;;;3.75;1.42;;;;;;;24.78;45.67;100574.31;5032133;28;20046;-63
2021/06/30 02:16:23;;;;;;;4.05;2.35;;;;;;;24.79;45.63;100575.97;5031975;28;20049;-63
2021/06/30 02:18:54;;;;;;;3.83;1.50;;;;;;;24.79;45.53;100567.91;5031882;28;20053;-63
2021/06/30 02:21:26;;;;;;;3.15;1.65;;;;;;;24.70;46.04;100564.50;5032158;28;20136;-63
2021/06/30 02:23:59;;;;;;;3.40;1.83;;;;;;;24.50;46.24;100558.81;5032144;28;20053;-63
2021/06/30 02:26:31;;;;;;;2.95;1.55;;;;;;;24.56;46.02;100555.38;5031887;28;20045;-63
2021/06/30 02:29:03;;;;;;;3.70;1.77;;;;;;;24.61;45.64;100555.66;5032092;28;20468;-63
2021/06/30 02:31:35;;;;;;;3.50;1.40;;;;;;;24.66;45.39;100557.00;5031919;28;20053;-63
2021/06/30 02:34:06;;;;;;;4.68;1.58;;;;;;;24.67;45.41;100553.28;5031882;28;20502;-63
2021/06/30 02:36:38;;;;;;;3.85;1.55;;;;;;;24.71;45.18;100552.75;5031793;28;20046;-63
2021/06/30 02:39:09;;;;;;;5.43;1.80;;;;;;;24.65;45.28;100560.72;5031873;28;20049;-63
2021/06/30 02:41:41;;;;;;;5.07;2.00;;;;;;;24.65;45.51;100549.97;5031705;28;20054;-63
2021/06/30 02:44:12;;;;;;;4.65;2.17;;;;;;;24.68;45.57;100552.28;5031772;28;20049;-63
2021/06/30 02:46:44;;;;;;;5.40;1.60;;;;;;;24.66;45.67;100551.63;5034545;28;20045;-63
2021/06/30 02:49:16;;;;;;;6.63;2.25;;;;;;;24.61;45.63;100554.84;5035504;28;20046;-63
2021/06/30 02:51:47;;;;;;;3.17;1.95;;;;;;;24.56;45.91;100547.34;5035530;28;20053;-63
2021/06/30 02:54:19;;;;;;;8.80;2.10;;;;;;;24.55;45.91;100555.56;5035411;28;20045;-63
2021/06/30 02:56:50;;;;;;;6.90;1.80;;;;;;;24.56;46.02;100552.69;5035376;28;20045;-63
2021/06/30 02:59:22;;;;;;;4.03;1.80;;;;;;;24.54;45.76;100546.69;5035307;28;20049;-63
2021/06/30 03:01:53;;;;;;;4.43;2.28;;;;;;;24.54;46.16;100548.53;5034381;28;20425;-63
2021/06/30 03:04:25;;;;;;;2.72;1.60;;;;;;;24.48;46.02;100543.91;5050758;28;20056;-63
2021/06/30 03:06:57;;;;;;;6.45;2.03;;;;;;;24.51;46.10;100536.31;5051633;28;20504;-63
2021/06/30 03:09:28;;;;;;;11.60;2.08;;;;;;;24.50;46.29;100540.03;5051643;28;20045;-63
2021/06/30 03:12:01;;;;;;;4.15;1.52;;;;;;;24.48;46.24;100543.91;5039264;28;20103;-63
2021/06/30 03:14:33;;;;;;;10.40;2.30;;;;;;;24.42;46.44;100543.63;5031771;28;20045;-63
2021/06/30 03:17:04;;;;;;;3.72;1.80;;;;;;;24.42;46.27;100543.63;5031654;28;20495;-63
2021/06/30 03:19:36;;;;;;;12.77;2.58;;;;;;;24.40;46.59;100539.47;5031538;28;20049;-63
2021/06/30 03:22:07;;;;;;;4.93;2.13;;;;;;;24.38;46.86;100545.00;5031513;28;20115;-63
2021/06/30 03:24:39;;;;;;;3.58;1.77;;;;;;;24.39;46.49;100554.72;5031390;28;20045;-63
2021/06/30 03:27:10;;;;;;;3.15;1.95;;;;;;;24.35;47.06;100555.28;5031043;28;20046;-63
2021/06/30 03:29:42;;;;;;;5.97;2.55;;;;;;;24.32;46.85;100559.16;5031415;28;20572;-63
2021/06/30 03:32:14;;;;;;;8.82;2.17;;;;;;;24.32;47.10;100558.31;5031362;28;20482;-63
2021/06/30 03:34:45;;;;;;;5.50;2.30;;;;;;;24.36;46.55;100552.41;5031463;28;20087;-63
2021/06/30 03:37:17;;;;;;;9.10;1.83;;;;;;;24.34;46.97;100558.97;5031199;28;20425;-63
2021/06/30 03:39:48;;;;;;;6.57;1.98;;;;;;;24.27;46.78;100551.63;5031465;28;20053;-63
2021/06/30 03:42:20;;;;;;;5.32;1.70;;;;;;;24.30;46.88;100553.13;5031246;28;20053;-63
2021/06/30 03:44:52;;;;;;;4.95;1.67;;;;;;;24.21;47.13;100560.41;5031543;28;20049;-63
2021/06/30 03:47:24;;;;;;;6.60;2.15;;;;;;;24.15;47.09;100555.78;5031402;28;20056;-63
2021/06/30 03:49:58;;;;;;;4.63;2.10;;;;;;;24.13;47.27;100564.00;5031336;28;20046;-63
2021/06/30 03:52:29;;;;;;;4.97;2.10;;;;;;;24.11;47.76;100565.19;5031021;28;20453;-63
2021/06/30 03:55:01;;;;;;;5.70;2.00;;;;;;;24.08;47.60;100566.38;5031108;28;20048;-63
2021/06/30 03:57:32;;;;;;;6.55;2.08;;;;;;;24.09;47.58;100561.88;5030186;28;20049;-63
2021/06/30 04:00:06;;;;;;;3.60;1.70;;;;;;;24.13;47.56;100565.84;5030740;28;20048;-63
2021/06/30 04:02:38;;;;;;;6.68;1.60;;;;;;;24.17;47.57;100558.28;5030647;28;20521;-63
2021/06/30 04:05:10;;;;;;;7.80;1.70;;;;;;;24.18;47.50;100554.59;5030705;28;20041;-62
2021/06/30 04:07:42;;;;;;;5.82;1.73;;;;;;;24.22;47.27;100555.91;5030594;28;20049;-63
2021/06/30 04:10:13;;;;;;;4.72;1.90;;;;;;;24.23;47.46;100560.25;5030600;28;20038;-63
2021/06/30 04:12:45;;;;;;;4.35;1.83;;;;;;;24.21;47.23;100557.72;5030371;28;20049;-63
2021/06/30 04:15:17;;;;;;;4.65;1.67;;;;;;;24.25;47.43;100567.09;5030682;28;20045;-62
2021/06/30 04:17:48;;;;;;;8.18;2.13;;;;;;;24.27;47.25;100567.72;5030548;28;20060;-63
2021/06/30 04:20:20;;;;;;;8.48;2.30;;;;;;;24.26;47.28;100563.41;5030406;28;20514;-63
2021/06/30 04:22:51;;;;;;;6.70;2.13;;;;;;;24.24;47.87;100562.75;5030507;28;20049;-63
2021/06/30 04:25:23;;;;;;;13.10;2.72;;;;;;;24.24;47.65;100565.41;5030546;28;20394;-63
2021/06/30 04:27:54;;;;;;;7.88;2.25;;;;;;;24.26;47.51;100563.41;5030212;28;20061;-63
2021/06/30 04:30:26;;;;;;;8.25;2.25;;;;;;;24.27;47.91;100558.88;5030256;28;20055;-63
2021/06/30 04:32:58;;;;;;;8.95;2.60;;;;;;;24.28;47.70;100561.34;5030406;28;20060;-63
2021/06/30 04:35:30;;;;;;;10.68;2.08;;;;;;;24.29;47.91;100557.66;5030256;28;20539;-63
2021/06/30 04:38:05;;;;;;;7.40;2.22;;;;;;;24.35;48.01;100560.63;5030289;28;20053;-63
2021/06/30 04:40:36;;;;;;;5.63;1.50;;;;;;;24.41;47.67;100567.97;5030039;28;20063;-63
2021/06/30 04:43:08;;;;;;;4.45;1.90;;;;;;;24.45;47.25;100574.63;5029931;28;20045;-63
2021/06/30 04:45:39;;;;;;;8.52;2.30;;;;;;;24.47;47.40;100575.28;5030032;28;20449;-63
2021/06/30 04:48:11;;;;;;;5.15;2.38;;;;;;;24.50;47.00;100571.41;5029926;28;20049;-63
2021/06/30 04:50:42;;;;;;;5.50;2.50;;;;;;;24.47;47.07;100577.97;5030267;28;20057;-63
2021/06/30 04:53:14;;;;;;;6.47;2.40;;;;;;;24.50;46.67;100582.94;5030011;28;20799;-63
2021/06/30 04:55:45;;;;;;;4.32;2.03;;;;;;;24.51;46.52;100578.44;5029472;28;20486;-63
2021/06/30 04:58:18;;;;;;;4.57;1.90;;;;;;;24.53;46.43;100566.50;5029723;28;20057;-63
2021/06/30 05:00:55;;;;;;;5.40;1.90;;;;;;;24.57;46.10;100575.84;5029743;28;20504;-63
2021/06/30 05:03:27;;;;;;;4.53;2.05;;;;;;;24.64;46.25;100572.44;5029524;28;20493;-62
2021/06/30 05:05:59;;;;;;;7.78;2.25;;;;;;;24.69;46.25;100570.06;5029724;28;20049;-64
2021/06/30 05:08:30;;;;;;;5.45;1.83;;;;;;;24.77;45.85;100572.63;5029901;28;20075;-63
2021/06/30 05:11:02;;;;;;;6.18;1.75;;;;;;;24.81;45.74;100570.41;5033007;28;20048;-63
2021/06/30 05:13:33;;;;;;;6.78;1.98;;;;;;;24.84;45.45;100568.19;5040507;28;20053;-63
2021/06/30 05:16:05;;;;;;;8.50;2.25;;;;;;;24.90;45.50;100566.59;5047825;28;20037;-63
2021/06/30 05:18:37;;;;;;;11.13;1.85;;;;;;;24.88;45.19;100564.13;5049094;28;20487;-63
2021/06/30 05:21:08;;;;;;;6.45;1.60;;;;;;;24.92;45.03;100564.59;5047774;28;20048;-63
2021/06/30 05:23:40;;;;;;;9.20;1.75;;;;;;;24.93;44.95;100561.72;5037346;28;20048;-64
2021/06/30 05:26:11;;;;;;;6.20;1.63;;;;;;;24.95;44.88;100564.22;5046209;28;20051;-65
2021/06/30 05:28:43;;;;;;;8.07;1.52;;;;;;;25.03;44.77;100563.28;5049027;28;20045;-65
2021/06/30 05:31:15;;;;;;;8.25;1.73;;;;;;;25.10;44.25;100556.13;5045799;28;20053;-64
2021/06/30 05:33:46;;;;;;;7.60;1.73;;;;;;;25.16;44.47;100566.13;5028810;28;20057;-64
2021/06/30 05:36:18;;;;;;;2.92;1.08;;;;;;;25.36;44.14;100574.47;5029358;28;20042;-64
2021/06/30 05:38:50;;;;;;;4.55;1.65;;;;;;;25.52;44.00;100569.88;5029506;28;20056;-63
2021/06/30 05:41:21;;;;;;;5.47;1.40;;;;;;;25.85;43.50;100572.94;5028871;28;20054;-66
2021/06/30 05:43:53;;;;;;;5.35;1.25;;;;;;;26.02;43.43;100576.19;5028967;28;20045;-65
2021/06/30 05:46:25;;;;;;;3.78;1.13;;;;;;;26.16;43.12;100577.16;5029087;28;20402;-64
2021/06/30 05:48:56;;;;;;;7.25;1.33;;;;;;;26.20;42.98;100577.59;5032317;28;20045;-65
2021/06/30 05:51:28;;;;;;;7.55;1.45;;;;;;;26.30;42.79;100586.16;5049074;28;20052;-63
2021/06/30 05:53:59;;;;;;;7.68;1.55;;;;;;;26.35;42.67;100594.47;5048982;28;20444;-63
2021/06/30 05:56:31;;;;;;;6.45;1.70;;;;;;;26.04;42.87;100589.41;5048902;28;20064;-63
2021/06/30 05:59:03;;;;;;;3.63;1.30;;;;;;;25.85;43.13;100593.59;5029137;28;20051;-63
2021/06/30 06:01:34;;;;;;;8.98;1.85;;;;;;;25.87;43.05;100595.06;5028867;28;20057;-66
2021/06/30 06:04:06;;;;;;;6.75;1.38;;;;;;;26.01;42.60;100593.31;5038051;28;20473;-63
2021/06/30 06:06:38;;;;;;;5.32;1.13;;;;;;;25.90;42.54;100583.94;5048107;28;20049;-64
2021/06/30 06:09:09;;;;;;;11.02;1.33;;;;;;;25.91;42.38;100580.22;5045959;28;20045;-63
2021/06/30 06:11:52;;;;;;;5.75;1.40;;;;;;;26.10;42.12;100587.88;5048048;28;20041;-63
2021/06/30 06:14:27;;;;;;;6.45;1.80;;;;;;;26.06;42.08;100593.63;5030665;28;20049;-62
2021/06/30 06:16:59;;;;;;;6.45;1.23;;;;;;;26.05;42.09;100594.63;5033103;28;20099;-63
2021/06/30 06:19:31;;;;;;;7.85;1.48;;;;;;;26.16;41.83;100593.28;5045772;28;20045;-63
2021/06/30 06:22:05;;;;;;;7.95;2.47;;;;;;;26.20;41.81;100588.38;5051648;28;20045;-63
2021/06/30 06:24:37;;;;;;;12.60;1.90;;;;;;;26.20;41.92;100582.97;5050540;28;20504;-64
2021/06/30 06:27:09;;;;;;;10.48;1.55;;;;;;;26.31;41.60;100593.22;5052136;28;20056;-66
2021/06/30 06:29:41;;;;;;;9.38;1.45;;;;;;;26.37;41.50;100587.06;5047853;28;20517;-65
2021/06/30 06:32:12;;;;;;;6.90;1.50;;;;;;;26.43;41.64;100582.75;5048960;28;20448;-65
2021/06/30 06:34:44;;;;;;;6.45;1.45;;;;;;;26.48;41.23;100582.97;5043618;28;20063;-66
2021/06/30 06:37:16;;;;;;;5.90;1.42;;;;;;;26.48;41.15;100584.84;5033651;28;20046;-65
2021/06/30 06:39:48;;;;;;;14.80;2.72;;;;;;;26.52;40.95;100586.13;5032270;28;20122;-65
2021/06/30 06:42:19;;;;;;;9.73;1.45;;;;;;;26.56;40.88;100592.75;5030811;28;20042;-70
2021/06/30 06:44:51;;;;;;;4.00;1.17;;;;;;;26.63;40.68;100596.34;5032194;28;20049;-65
2021/06/30 06:47:22;;;;;;;6.05;1.25;;;;;;;26.77;40.66;100591.91;5032134;28;20057;-65
2021/06/30 06:49:49;;;;;;;6.50;1.15;;;;;;;26.81;40.50;100593.16;5031972;28;20042;-67
2021/06/30 06:52:20;;;;;;;9.75;1.17;;;;;;;26.94;40.54;100587.03;5031761;28;20049;-66
2021/06/30 06:54:52;;;;;;;21.85;3.28;;;;;;;27.04;40.47;100578.59;5031941;28;20490;-65
2021/06/30 06:57:24;;;;;;;5.03;1.40;;;;;;;27.03;40.20;100585.84;5031931;28;20049;-65
2021/06/30 06:59:55;;;;;;;7.95;1.23;;;;;;;27.09;40.00;100588.78;5032033;28;20478;-69
2021/06/30 07:02:28;;;;;;;9.32;1.30;;;;;;;27.10;39.79;100588.56;5031742;28;20147;-65
2021/06/30 07:05:00;;;;;;;6.15;1.40;;;;;;;27.12;39.48;100585.66;5032056;28;20057;-66
2021/06/30 07:07:31;;;;;;;8.90;1.05;;;;;;;27.14;39.13;100589.00;5031659;28;20052;-65
2021/06/30 07:10:03;;;;;;;4.13;1.10;;;;;;;27.14;38.73;100595.19;5031829;28;20379;-65
2021/06/30 07:12:35;;;;;;;9.02;1.02;;;;;;;27.25;38.13;100595.66;5031476;28;20434;-65
2021/06/30 07:15:08;;;;;;;6.07;0.85;;;;;;;27.25;37.81;100601.06;5031419;28;20081;-65
2021/06/30 07:17:39;;;;;;;9.77;1.40;;;;;;;27.26;37.62;100598.19;5031319;28;20513;-65
2021/06/30 07:20:11;;;;;;;5.10;1.15;;;;;;;27.27;37.44;100599.81;5031805;28;20045;-64
2021/06/30 07:22:42;;;;;;;5.63;0.90;;;;;;;27.34;37.09;100599.88;5031340;28;20452;-64
2021/06/30 07:25:16;;;;;;;6.80;1.00;;;;;;;27.41;36.82;100597.22;5031061;28;20074;-65
2021/06/30 07:27:48;;;;;;;5.32;1.10;;;;;;;27.50;36.58;100596.00;5031482;28;20049;-64
2021/06/30 07:30:19;;;;;;;5.40;1.20;;;;;;;27.53;36.58;100598.31;5031439;28;20053;-65
2021/06/30 07:32:51;;;;;;;4.13;1.10;;;;;;;27.60;36.15;100591.03;5029764;28;20482;-65
2021/06/30 07:35:22;;;;;;;4.28;1.08;;;;;;;27.64;36.17;100586.06;5031088;28;20060;-65
2021/06/30 07:37:54;;;;;;;7.68;1.05;;;;;;;27.74;36.12;100591.09;5031327;28;20045;-64
2021/06/30 07:40:26;;;;;;;5.18;1.30;;;;;;;27.82;36.20;100586.34;5030902;28;20052;-69
2021/06/30 07:42:58;;;;;;;4.18;0.90;;;;;;;27.85;36.16;100590.50;5031101;28;20075;-64
2021/06/30 07:45:25;;;;;;;4.57;0.90;;;;;;;27.85;35.91;100594.00;5031068;28;20068;-66
2021/06/30 07:47:52;;;;;;;6.00;0.95;;;;;;;27.96;35.49;100586.34;5031100;28;20057;-64
2021/06/30 07:50:19;;;;;;;3.13;0.80;;;;;;;28.06;35.39;100591.38;5031090;28;20123;-64
2021/06/30 07:52:48;;;;;;;7.03;1.40;;;;;;;28.10;35.44;100592.59;5030647;28;20056;-65
2021/06/30 07:55:16;;;;;;;2.90;0.88;;;;;;;28.12;35.25;100588.66;5030780;28;20414;-64
2021/06/30 07:57:44;;;;;;;3.63;0.93;;;;;;;28.18;35.30;100590.53;5030610;28;20505;-64
2021/06/30 08:00:11;;;;;;;5.72;0.90;;;;;;;28.25;35.23;100584.31;5030832;28;20128;-69
2021/06/30 08:02:39;;;;;;;4.40;1.33;;;;;;;28.46;35.06;100586.78;5030782;28;20395;-66
2021/06/30 08:05:07;;;;;;;5.82;0.93;;;;;;;28.49;34.78;100591.78;5030822;28;20072;-67
2021/06/30 08:07:34;;;;;;;2.70;0.88;;;;;;;28.49;34.55;100588.22;5030549;28;20049;-64
2021/06/30 08:10:07;;;;;;;4.32;0.80;;;;;;;28.49;34.55;100589.09;5030750;28;20045;-63
2021/06/30 08:12:34;;;;;;;6.32;0.80;;;;;;;28.54;34.58;100583.03;5030341;28;20049;-63
2021/06/30 08:15:00;;;;;;;4.03;0.85;;;;;;;28.71;34.03;100583.47;5030433;28;20049;-63
2021/06/30 08:17:27;;;;;;;4.63;1.02;;;;;;;28.88;34.31;100589.22;5030760;28;23207;-63
2021/06/30 08:19:54;;;;;;;4.80;1.00;;;;;;;28.84;34.36;100591.50;5030754;28;20049;-63
2021/06/30 08:22:20;;;;;;;2.67;0.90;;;;;;;28.97;33.95;100585.25;5030185;28;20050;-63
2021/06/30 08:24:47;;;;;;;5.10;1.30;;;;;;;29.07;33.94;100589.38;5030379;28;20048;-63
2021/06/30 08:27:14;;;;;;;5.40;1.17;;;;;;;29.04;34.08;100590.66;5030472;28;20073;-64
2021/06/30 08:29:43;;;;;;;8.93;2.30;;;;;;;28.93;34.27;100585.91;5030027;28;20045;-66
2021/06/30 08:32:09;;;;;;;2.90;0.82;;;;;;;28.83;34.16;100583.63;5030154;28;20053;-66
2021/06/30 08:34:36;;;;;;;7.22;1.00;;;;;;;28.89;34.28;100584.69;5034856;28;20509;-66
2021/06/30 08:37:07;;;;;;;2.63;0.90;;;;;;;28.92;34.25;100584.22;5046522;28;20036;-69
2021/06/30 08:39:34;;;;;;;3.40;0.85;;;;;;;28.91;33.82;100579.88;5050022;28;20049;-65
2021/06/30 08:42:02;;;;;;;5.32;1.38;;;;;;;28.98;33.80;100577.97;5049728;28;20114;-65
2021/06/30 08:44:33;;;;;;;4.22;1.02;;;;;;;29.09;33.45;100581.88;5046810;28;20048;-65
2021/06/30 08:47:01;;;;;;;11.10;1.52;;;;;;;29.24;33.41;100574.34;5049504;28;20497;-65
2021/06/30 08:49:28;;;;;;;3.88;1.10;;;;;;;29.34;33.53;100567.69;5042671;28;20049;-65
2021/06/30 08:51:57;;;;;;;5.60;1.20;;;;;;;29.44;33.55;100574.25;5041553;28;20091;-66
2021/06/30 08:54:25;;;;;;;7.45;1.42;;;;;;;29.54;33.30;100571.09;5039583;28;20397;-66
2021/06/30 08:56:52;;;;;;;3.13;1.13;;;;;;;29.62;33.28;100578.13;5046052;28;20048;-65
2021/06/30 08:59:21;;;;;;;4.53;1.15;;;;;;;29.78;32.59;100583.00;5049046;28;20410;-64
2021/06/30 09:01:48;;;;;;;2.45;1.00;;;;;;;29.80;32.43;100580.91;5048252;28;20075;-64
2021/06/30 09:04:15;;;;;;;8.85;1.10;;;;;;;29.88;32.41;100582.56;5048903;28;20710;-63
2021/06/30 09:06:41;;;;;;;6.45;1.05;;;;;;;29.93;32.14;100580.03;5048497;28;20056;-63
2021/06/30 09:09:14;;;;;;;3.88;1.35;;;;;;;30.13;32.34;100576.31;5047141;28;20053;-64
2021/06/30 09:11:59;;;;;;;7.05;1.08;;;;;;;30.39;32.07;100575.25;5048694;28;20041;-63
2021/06/30 09:14:38;;;;;;;11.20;1.17;;;;;;;30.42;32.07;100569.41;5047871;28;20053;-63
2021/06/30 09:17:19;;;;;;;7.00;0.95;;;;;;;30.54;32.12;100560.59;5047157;28;20045;-63
2021/06/30 09:19:46;;;;;;;3.55;1.10;;;;;;;30.52;31.88;100574.31;5046472;28;20520;-63
2021/06/30 09:22:14;;;;;;;7.32;1.30;;;;;;;30.64;31.61;100574.44;5045518;28;20041;-62
2021/06/30 09:24:43;;;;;;;3.78;1.20;;;;;;;30.72;31.12;100576.00;5048059;28;20279;-63
2021/06/30 09:27:12;;;;;;;4.28;1.05;;;;;;;30.78;30.82;100567.81;5047700;28;20057;-62
2021/06/30 09:29:41;;;;;;;4.85;1.10;;;;;;;30.87;30.78;100556.69;5046427;28;20493;-63
2021/06/30 09:32:13;;;;;;;5.72;1.33;;;;;;;30.90;30.48;100561.63;5048492;28;20095;-63
2021/06/30 09:34:40;;;;;;;6.13;1.10;;;;;;;30.92;30.58;100563.06;5045999;28;20118;-62
2021/06/30 09:37:08;;;;;;;5.68;1.23;;;;;;;31.12;30.53;100562.00;5047813;28;20091;-64
2021/06/30 09:40:02;;;;;;;4.22;1.00;;;;;;;31.28;30.35;100568.69;5045701;28;20036;-65
2021/06/30 09:42:30;;;;;;;9.85;1.25;;;;;;;31.48;30.08;100565.72;5040297;28;20048;-65
2021/06/30 09:45:19;;;;;;;6.20;1.33;;;;;;;31.57;29.90;100560.78;5045544;28;20482;-65
2021/06/30 09:47:51;;;;;;;9.13;1.17;;;;;;;31.79;29.93;100560.28;5047135;28;20119;-64
2021/06/30 09:50:38;;;;;;;6.38;0.85;;;;;;;31.88;29.82;100556.16;5047494;28;20055;-64
2021/06/30 09:53:05;;;;;;;4.35;0.90;;;;;;;31.90;29.30;100554.06;5047080;28;20041;-64
2021/06/30 09:55:34;;;;;;;4.65;1.10;;;;;;;31.84;29.48;100558.50;5047265;28;20049;-64
2021/06/30 09:58:01;;;;;;;4.15;1.10;;;;;;;31.78;29.15;100555.91;5048216;28;20048;-64
2021/06/30 10:00:29;;;;;;;4.50;1.23;;;;;;;32.03;28.64;100551.09;5048220;28;20037;-64
2021/06/30 10:02:56;;;;;;;4.28;0.93;;;;;;;32.08;28.68;100547.69;5048155;28;20053;-64
2021/06/30 10:05:31;;;;;;;3.90;0.80;;;;;;;32.04;28.91;100554.66;5038693;28;20073;-64
2021/06/30 10:08:37;;;;;;;8.63;1.17;;;;;;;32.03;28.30;100553.81;5028332;28;20053;-65
2021/06/30 10:11:11;;;;;;;2.38;0.60;;;;;;;32.16;27.62;100551.94;5028410;28;20053;-64
2021/06/30 10:13:37;;;;;;;5.13;1.15;;;;;;;32.24;27.48;100548.91;5028167;28;20045;-64
2021/06/30 10:16:05;;;;;;;4.55;0.80;;;;;;;32.33;26.94;100555.63;5028486;28;20172;-64
2021/06/30 10:18:33;;;;;;;3.25;0.70;;;;;;;32.35;27.17;100549.97;5027561;28;20061;-64
2021/06/30 10:21:00;;;;;;;7.13;0.82;;;;;;;32.27;26.65;100548.44;5047391;28;20045;-64
2021/06/30 10:23:27;;;;;;;4.05;0.60;;;;;;;32.59;26.37;100545.31;5047804;28;20055;-65
2021/06/30 10:25:54;;;;;;;7.47;1.55;;;;;;;32.69;26.49;100547.44;5047635;28;20539;-65
2021/06/30 10:28:22;;;;;;;5.60;1.15;;;;;;;32.82;26.71;100539.03;5044234;28;20041;-64
2021/06/30 10:30:53;;;;;;;2.40;0.60;;;;;;;32.77;26.61;100538.13;5039124;28;20056;-64
2021/06/30 10:33:31;;;;;;;3.78;0.80;;;;;;;32.55;25.94;100546.88;5028066;28;20147;-63
2021/06/30 10:36:00;;;;;;;5.15;0.88;;;;;;;32.56;25.91;100548.53;5032988;28;20084;-64
2021/06/30 10:38:53;;;;;;;4.30;1.02;;;;;;;32.59;25.17;100548.03;5046723;28;20405;-65
2021/06/30 10:41:40;;;;;;;7.88;0.98;;;;;;;32.71;25.36;100546.13;5035166;28;20047;-67
2021/06/30 10:44:11;;;;;;;6.22;1.00;;;;;;;32.85;25.06;100544.00;5033101;28;20064;-64
2021/06/30 10:46:38;;;;;;;3.20;0.80;;;;;;;32.96;25.11;100541.50;5037704;28;20501;-64
2021/06/30 10:49:14;;;;;;;3.65;0.60;;;;;;;32.75;24.82;100543.81;5030009;28;20041;-64
2021/06/30 10:51:51;;;;;;;3.78;0.90;;;;;;;33.00;24.77;100539.94;5027459;28;20042;-64
2021/06/30 10:54:33;;;;;;;3.92;0.95;;;;;;;33.08;24.63;100547.72;5035481;28;20053;-63
2021/06/30 10:57:18;;;;;;;5.30;0.90;;;;;;;33.28;24.43;100525.56;5047363;28;20123;-64
2021/06/30 11:00:04;;;;;;;4.97;0.65;;;;;;;33.34;24.90;100529.19;5040515;28;20041;-64
2021/06/30 11:02:33;;;;;;;3.50;0.90;;;;;;;33.21;25.00;100533.81;5029692;28;20053;-64
2021/06/30 11:05:12;;;;;;;5.47;0.90;;;;;;;33.08;24.80;100533.28;5058169;28;20375;-63
2021/06/30 11:07:40;;;;;;;2.47;0.80;;;;;;;33.18;24.75;100533.50;5030275;28;20045;-63
2021/06/30 11:10:16;;;;;;;4.32;0.60;;;;;;;33.08;24.34;100525.13;5031483;28;20048;-62
2021/06/30 11:12:56;;;;;;;2.47;0.70;;;;;;;33.22;24.45;100519.16;5031209;28;20129;-62
2021/06/30 11:15:34;;;;;;;4.60;0.85;;;;;;;33.33;24.18;100528.38;5030971;28;20045;-65
2021/06/30 11:18:22;;;;;;;2.75;1.05;;;;;;;33.44;24.60;100517.69;5030950;28;20077;-62
2021/06/30 11:20:51;;;;;;;3.30;0.52;;;;;;;33.44;24.60;100517.69;5031750;28;20046;-63
2021/06/30 11:23:24;;;;;;;3.88;0.88;;;;;;;33.40;24.75;100521.97;5030940;28;20053;-67
2021/06/30 11:25:55;;;;;;;3.17;0.65;;;;;;;33.35;24.60;100512.63;5031007;28;20049;-63
2021/06/30 11:28:35;;;;;;;3.88;1.33;;;;;;;33.56;24.17;100515.72;5030316;28;20417;-63
2021/06/30 11:31:26;;;;;;;3.95;0.50;;;;;;;33.64;24.37;100509.84;5030842;28;20046;-64
2021/06/30 11:34:11;;;;;;;2.85;0.77;;;;;;;33.62;23.99;100498.38;5030922;28;20053;-63
2021/06/30 11:36:39;;;;;;;4.95;0.90;;;;;;;33.72;24.17;100505.09;5031167;28;20057;-65
2021/06/30 11:39:12;;;;;;;3.72;0.73;;;;;;;33.48;24.23;100502.50;5030769;28;20525;-63
2021/06/30 11:41:46;;;;;;;6.55;0.82;;;;;;;33.63;23.87;100500.03;5029909;28;20049;-64
2021/06/30 11:44:14;;;;;;;4.03;1.45;;;;;;;33.76;23.48;100503.50;5031186;28;20379;-63
2021/06/30 11:46:41;;;;;;;5.55;0.70;;;;;;;33.65;23.55;100492.47;5030652;28;20056;-66